Adak, Alaska
Current Conditions -  °F | °C
As of 2:16 AM on Sunday 25 Jan 2015 (Local Time) from PADK Reporting Station
Overcast Overcast  
Wind Chill: 26°   Ceiling: 2000
Heat Index: 32°   Visibility: 4mi
Dew Point: 28°   Wind: 6mph
Humidity: 87%   Direction: 350°N
Pressure: 29.43"   Gusts: NA
Location:  51.88°N, 176.66°W
Report Text: PADK 251216Z AUTO 35005KT 4SM SCT011 BKN020 OVC025 00/M02 A2943 RMK AO1
Loading
Personal Weather Stations






























Interactive Weather Map New forecast layout! Learn more

10-Day Weather Forecast

Advertisements
Track Severe Weather on mobile